Lawrence, KS (66049)

6:11 AM CDT on August 31, 2015 (GMT -0500)
Pioneer Ridge | | Change Station
CLOSE
Current Station
Personal Weather Station
Location: Lawrence, KS
Elevation: 1024 ft
Nearby Weather Stations

Elev 1024 ft 38.97 °N, 95.28 °W | Updated 2 minutes ago

Overcast
Overcast
68.0 °F
Feels Like 68.0 °F
N
0.0
Wind Variable Wind from SSW

Today
High -- | Low -- °F
--% Chance of Precip.
Yesterday
High -- | Low -- °F
Precip. -- in
6:48 AM 7:53 PM
Waning Gibbous, 96% visible
Pressure 29.94 in
Visibility 0.5 miles
Clouds Mostly Cloudy 1100 ft
Overcast 4700 ft
Dew Point 66 °F
Humidity 93%
Rainfall 0.00 in
Snow Depth Not available.
UV 0 out of 12
Pollen 10.50 out of 12
Air Quality Not available.
Flu Activity Not available.
METAR KLWC 311052Z AUTO 00000KT 1/2SM FG BKN011 OVC047 17/17 A2996 RMK AO2 SLP139 T01720172
Pressure 29.94 in
Visibility 0.5 miles
Clouds Mostly Cloudy 1100 ft
Overcast 4700 ft
Dew Point 66 °F
Humidity 93%
Rainfall 0.00 in
Snow Depth Not available.
UV 0 out of 12
Pollen 10.50 out of 12
Air Quality Not available.
Flu Activity Not available.
METAR KLWC 311052Z AUTO 00000KT 1/2SM FG BKN011 OVC047 17/17 A2996 RMK AO2 SLP139 T01720172

10-Day Weather Forecast

×

Almanac

Astronomy

Aug. 31, 2015 Rise Set
Actual Time
Civil Twilight
Nautical Twilight
Astronomical Twilight
Moon
Length of Visible Light
Length of Day
Tomorrow will be .
, % of the Moon is Illuminated

Today's Extremes

State Highs State Lows

Community

WunderPhotos

Upload Photos

1,851,217 photos uploaded!

WunderBlogs® & News

Nearby

Air Quality

  Air Quality AQ Index Pollutant
Not available.

Snow Depth

Station Depth Elevation

Earthquake Activity

City Distance Mag. Time & Date
Minimum magnitude displayed is 2.5.

Coastal Water Temperatures

Place Temperature

Stations

Nearby Weather Stations

Station Location Temp. Windchill Dew Point Humidity Wind Precip. Elev Updated Type